Bei Facebook empfehlenBei Twitter postenGoogle plusPinterest

Das Wetter im Erzgebirge am 15.10.2015

Wetter und Klima am 15.10.2015 Holzhau im Erzgebirge (630m ü.NN)
Letzte gemessene Temperatur und Uhrzeit der Messung23:45:00 Uhr6.90 °C
Temperatur (Maximum / Höchstwert) und Uhrzeit der Messung14:30:00 Uhr9.10 °C
Temperatur (Minimum / Tiefstwert) und Uhrzeit der Messung06:00:001.80 °C
Errechneter Absolutwert der Temperaturschwankungen zwischen Tmin und Tmax des Tages7.30 K
Errechnete Tagesmitteltemperatur5.61458 °C
Gesamt - Niederschlag des Tages (in flüssiger Form)10.36 Liter / m²
Luftdruck (Maximum / Höchstwert) und Zeitpunkt der Messung00:45:00 Uhr1013.30 hPa
Luftdruck (Minimum / Tiefstwert) und Zeitpunkt der Messung17:45:00 Uhr1008.40 hPa
Errechneter Absolutwert der Luftdruckschwankungen des Tages4.90 hPa
Höchste gemessene Windgeschwindigkeit und Uhrzeit der Messung10:00:00 Uhr10.44 km/h
Errechnete Windhäufigkeit in Relation zu den Messwerten des Tages9.37500 %
Niedrigste Windkühle (Windchill) und Zeitpunkt der Messung06:00:00 Uhr1.80 °C
Taupunkt (Maximum / Höchstwert) und Uhrzeit der Messung14:30:00 Uhr8.50 °C
Taupunkt (Minimum / Tiefstwert) und Uhrzeit der Messung06:00:000.90 °C
Anzahl der automatisch eingelesenen Messwerte 96

Detaillierte Wetter- und Klima- Messwerte für den 15.10.2015 in Holzhau im Erzgebirge (630m ü.NN)
ZeitTemperaturLuftdruckRel. LuftfeuchteWindWindrichtungWindchillTaupunktNiederschlag l/m²
23:45:006.90 °C1009.80 hPa96.00 %6.30 °C10.36
23:30:007.20 °C1009.80 hPa96.00 %6.60 °C10.36
23:15:007.30 °C1009.90 hPa96.00 %6.70 °C10.36
23:00:007.40 °C1009.90 hPa96.00 %6.80 °C10.36
22:45:007.50 °C1009.90 hPa96.00 %6.90 °C10.36
22:30:007.60 °C1009.90 hPa96.00 %7.00 °C9.84
22:15:007.80 °C1010.00 hPa96.00 %7.20 °C9.84
22:00:007.90 °C1009.80 hPa96.00 %7.30 °C9.84
21:45:008.30 °C1009.80 hPa96.00 %7.70 °C9.84
21:30:008.40 °C1009.80 hPa96.00 %7.80 °C9.84
21:15:008.40 °C1009.70 hPa96.00 %7.80 °C9.84
21:00:008.40 °C1009.60 hPa96.00 %7.80 °C9.84
20:45:008.40 °C1009.60 hPa96.00 %7.80 °C9.84
20:30:008.40 °C1009.20 hPa96.00 %7.80 °C9.84
20:15:008.30 °C1009.40 hPa96.00 %7.70 °C9.84
20:00:008.30 °C1009.30 hPa96.00 %7.70 °C9.84
19:45:008.20 °C1009.40 hPa96.00 %7.60 °C9.84
19:30:008.20 °C1009.10 hPa96.00 %7.60 °C9.84
19:15:008.20 °C1009.30 hPa96.00 %7.60 °C9.84
19:00:008.10 °C1009.30 hPa96.00 %7.50 °C9.84
18:45:008.10 °C1009.20 hPa96.00 %7.50 °C9.84
18:30:008.10 °C1008.90 hPa96.00 %7.50 °C9.84
18:15:008.00 °C1008.90 hPa96.00 %7.40 °C9.84
18:00:007.90 °C1008.70 hPa96.00 %7.30 °C9.84
17:45:007.90 °C1008.40 hPa96.00 %7.30 °C9.84
17:30:007.90 °C1008.60 hPa96.00 %7.30 °C9.32
17:15:007.90 °C1008.90 hPa96.00 %7.30 °C9.32
17:00:007.80 °C1008.80 hPa96.00 %7.20 °C9.32
16:45:007.80 °C1009.00 hPa96.00 %7.20 °C9.32
16:30:007.90 °C1009.00 hPa96.00 %7.30 °C9.32
16:15:007.90 °C1009.10 hPa95.00 %7.10 °C9.32
16:00:008.10 °C1009.20 hPa95.00 %7.30 °C9.32
15:45:008.10 °C1009.10 hPa95.00 %7.30 °C9.32
15:30:008.30 °C1009.20 hPa95.00 %7.50 °C9.32
15:15:008.40 °C1009.00 hPa95.00 %7.60 °C9.32
15:00:008.60 °C1008.90 hPa95.00 %7.80 °C9.32
14:45:008.90 °C1008.70 hPa96.00 %8.30 °C9.32
14:30:009.10 °C1008.80 hPa96.00 %8.50 °C9.32
14:15:009.00 °C1008.80 hPa96.00 %8.40 °C9.32
14:00:008.80 °C1008.60 hPa96.00 %1.80 km/hOSO8.80 °C8.20 °C9.32
13:45:008.60 °C1008.80 hPa96.00 %8.00 °C9.32
13:30:008.30 °C1008.80 hPa96.00 %3.24 km/hSO8.30 °C7.70 °C9.32
13:15:008.30 °C1008.80 hPa96.00 %7.70 °C9.32
13:00:008.30 °C1008.70 hPa96.00 %7.70 °C9.32
12:45:008.10 °C1008.80 hPa96.00 %2.88 km/hOSO8.10 °C7.50 °C8.81
12:30:007.90 °C1008.70 hPa96.00 %7.30 °C8.81
12:15:007.90 °C1008.60 hPa96.00 %7.30 °C8.81
12:00:007.90 °C1008.80 hPa96.00 %7.30 °C8.81
11:45:007.60 °C1008.60 hPa96.00 %7.00 °C8.81
11:30:007.20 °C1008.80 hPa96.00 %6.60 °C8.81
11:15:006.60 °C1008.80 hPa96.00 %6.00 °C8.29
11:00:006.00 °C1008.70 hPa95.00 %5.30 °C8.29
10:45:005.70 °C1008.70 hPa95.00 %5.00 °C7.77
10:30:005.60 °C1008.70 hPa95.00 %1.80 km/hSO5.60 °C4.90 °C7.25
10:15:005.40 °C1008.60 hPa95.00 %4.70 °C6.73
10:00:005.40 °C1008.70 hPa95.00 %10.44 km/hSSO3.00 °C4.70 °C6.73
09:45:005.10 °C1008.50 hPa95.00 %7.56 km/hSSO3.40 °C4.40 °C6.22
09:30:004.70 °C1008.80 hPa95.00 %3.60 km/hSSO4.70 °C4.00 °C6.22
09:15:004.50 °C1008.90 hPa95.00 %3.80 °C5.70
09:00:004.30 °C1008.90 hPa95.00 %3.60 °C5.70
08:45:004.10 °C1008.80 hPa95.00 %3.40 °C5.70
08:30:003.80 °C1008.90 hPa95.00 %3.10 °C5.18
08:15:003.60 °C1008.90 hPa95.00 %1.44 km/hSO3.60 °C2.90 °C5.18
08:00:003.40 °C1008.90 hPa95.00 %2.70 °C4.66
07:45:003.30 °C1009.10 hPa95.00 %2.60 °C4.66
07:30:003.30 °C1009.00 hPa95.00 %2.60 °C4.66
07:15:003.20 °C1009.20 hPa95.00 %2.50 °C4.66
07:00:003.00 °C1009.20 hPa95.00 %2.30 °C4.14
06:45:002.80 °C1009.50 hPa94.00 %1.90 °C3.63
06:30:002.40 °C1009.70 hPa94.00 %2.16 km/hSSO2.40 °C1.50 °C3.63
06:15:001.90 °C1009.80 hPa94.00 %1.00 °C3.11
06:00:001.80 °C1010.00 hPa94.00 %0.90 °C2.59
05:45:001.80 °C1010.20 hPa94.00 %0.90 °C2.59
05:30:001.80 °C1010.50 hPa94.00 %0.90 °C2.59
05:15:001.80 °C1010.80 hPa94.00 %0.90 °C2.59
05:00:001.80 °C1011.10 hPa94.00 %0.90 °C2.59
04:45:001.80 °C1011.10 hPa94.00 %0.90 °C2.59
04:30:001.80 °C1011.10 hPa94.00 %0.90 °C2.07
04:15:001.80 °C1011.60 hPa94.00 %0.90 °C2.07
04:00:001.80 °C1011.80 hPa94.00 %0.90 °C1.55
03:45:001.80 °C1011.80 hPa94.00 %0.90 °C1.55
03:30:001.80 °C1012.10 hPa94.00 %0.90 °C1.04
03:15:001.90 °C1012.30 hPa94.00 %1.00 °C1.04
03:00:001.90 °C1012.20 hPa94.00 %1.00 °C1.04
02:45:001.90 °C1012.40 hPa94.00 %1.00 °C1.04
02:30:001.90 °C1012.60 hPa94.00 %1.00 °C0.52
02:15:001.90 °C1012.60 hPa94.00 %1.00 °C0.52
02:00:001.90 °C1012.80 hPa94.00 %1.00 °C0.52
01:45:001.90 °C1012.90 hPa94.00 %1.00 °C0.52
01:30:001.90 °C1013.10 hPa94.00 %1.00 °C0.52
01:15:001.90 °C1013.00 hPa94.00 %1.00 °C0.52
01:00:002.10 °C1013.00 hPa93.00 %1.10 °C0.52
00:45:002.10 °C1013.30 hPa93.00 %1.10 °C0.52
00:30:002.10 °C1013.30 hPa93.00 %1.10 °C0.52
00:15:002.00 °C1013.20 hPa93.00 %1.00 °C 
00:00:001.90 °C1013.10 hPa93.00 %0.90 °C 

Permanenter Link zu dieser Seite: Wetter im Erzgebirge am 15.10.2015
Performance-Info: Die Erstellung der Seite / Statistik(en) / Tabelle(n) erforderte 5 Datenbankserver-Abfrage(n) und dauerte 100 Millisekunden. (Dieser Messwert ist von der Gesamt-Auslastung des Servers abhängig.)
Erzgebirge - Wetter | Erzgebirge - Wetter (Mobilgeräte) | Komplette Klimadatenbank